sensor_id;sensor_type;location;lat;lon;timestamp;P1;durP1;ratioP1;P2;durP2;ratioP2
47912;SDS011;33676;51.006;17.180;2024-03-29T00:01:07;2.80;;;2.60;;
47912;SDS011;33676;51.006;17.180;2024-03-29T00:03:51;2.70;;;2.50;;
47912;SDS011;33676;51.006;17.180;2024-03-29T00:06:19;3.20;;;3.00;;
47912;SDS011;33676;51.006;17.180;2024-03-29T00:08:47;2.90;;;2.70;;
47912;SDS011;33676;51.006;17.180;2024-03-29T00:11:13;2.80;;;2.60;;
47912;SDS011;33676;51.006;17.180;2024-03-29T00:13:41;3.20;;;2.90;;
47912;SDS011;33676;51.006;17.180;2024-03-29T00:16:08;3.40;;;3.10;;
47912;SDS011;33676;51.006;17.180;2024-03-29T00:18:35;3.20;;;2.90;;
47912;SDS011;33676;51.006;17.180;2024-03-29T00:21:03;3.10;;;2.90;;
47912;SDS011;33676;51.006;17.180;2024-03-29T00:23:34;3.00;;;2.80;;
47912;SDS011;33676;51.006;17.180;2024-03-29T00:26:12;2.70;;;2.50;;
47912;SDS011;33676;51.006;17.180;2024-03-29T00:28:39;2.90;;;2.70;;
47912;SDS011;33676;51.006;17.180;2024-03-29T00:31:07;2.80;;;2.70;;
47912;SDS011;33676;51.006;17.180;2024-03-29T00:33:35;2.80;;;2.60;;
47912;SDS011;33676;51.006;17.180;2024-03-29T00:36:02;3.00;;;2.80;;
47912;SDS011;33676;51.006;17.180;2024-03-29T00:38:30;3.70;;;3.10;;
47912;SDS011;33676;51.006;17.180;2024-03-29T00:40:57;2.80;;;2.70;;
47912;SDS011;33676;51.006;17.180;2024-03-29T00:43:24;3.30;;;3.10;;
47912;SDS011;33676;51.006;17.180;2024-03-29T00:45:51;4.10;;;3.70;;
47912;SDS011;33676;51.006;17.180;2024-03-29T00:48:19;3.20;;;3.00;;
47912;SDS011;33676;51.006;17.180;2024-03-29T00:50:47;3.20;;;3.00;;
47912;SDS011;33676;51.006;17.180;2024-03-29T00:53:14;4.20;;;3.90;;
47912;SDS011;33676;51.006;17.180;2024-03-29T00:55:41;3.70;;;3.50;;
47912;SDS011;33676;51.006;17.180;2024-03-29T00:58:08;3.80;;;3.20;;
47912;SDS011;33676;51.006;17.180;2024-03-29T01:00:35;4.30;;;4.00;;
47912;SDS011;33676;51.006;17.180;2024-03-29T01:03:03;3.40;;;3.10;;
47912;SDS011;33676;51.006;17.180;2024-03-29T01:05:30;4.10;;;3.50;;
47912;SDS011;33676;51.006;17.180;2024-03-29T01:07:57;4.20;;;3.90;;
47912;SDS011;33676;51.006;17.180;2024-03-29T01:10:24;4.00;;;3.60;;
47912;SDS011;33676;51.006;17.180;2024-03-29T01:12:51;3.30;;;3.10;;
47912;SDS011;33676;51.006;17.180;2024-03-29T01:15:18;3.50;;;3.20;;
47912;SDS011;33676;51.006;17.180;2024-03-29T01:17:45;3.30;;;3.10;;
47912;SDS011;33676;51.006;17.180;2024-03-29T01:20:12;3.90;;;3.40;;
47912;SDS011;33676;51.006;17.180;2024-03-29T01:22:39;3.10;;;2.90;;
47912;SDS011;33676;51.006;17.180;2024-03-29T01:25:07;3.40;;;3.20;;
47912;SDS011;33676;51.006;17.180;2024-03-29T01:27:36;3.00;;;2.80;;
47912;SDS011;33676;51.006;17.180;2024-03-29T01:30:04;3.50;;;3.30;;
47912;SDS011;33676;51.006;17.180;2024-03-29T01:32:31;3.20;;;3.10;;
47912;SDS011;33676;51.006;17.180;2024-03-29T01:34:58;2.80;;;2.60;;
47912;SDS011;33676;51.006;17.180;2024-03-29T01:37:25;3.70;;;3.40;;
47912;SDS011;33676;51.006;17.180;2024-03-29T01:39:52;3.20;;;3.00;;
47912;SDS011;33676;51.006;17.180;2024-03-29T01:42:19;3.30;;;3.10;;
47912;SDS011;33676;51.006;17.180;2024-03-29T01:44:47;3.50;;;3.30;;
47912;SDS011;33676;51.006;17.180;2024-03-29T01:47:16;3.60;;;3.40;;
47912;SDS011;33676;51.006;17.180;2024-03-29T01:49:44;3.00;;;2.80;;
47912;SDS011;33676;51.006;17.180;2024-03-29T01:52:13;3.20;;;2.90;;
47912;SDS011;33676;51.006;17.180;2024-03-29T01:54:43;3.10;;;2.80;;
47912;SDS011;33676;51.006;17.180;2024-03-29T01:57:11;4.00;;;3.30;;
47912;SDS011;33676;51.006;17.180;2024-03-29T01:59:41;3.60;;;3.20;;
47912;SDS011;33676;51.006;17.180;2024-03-29T02:02:10;3.50;;;3.30;;
47912;SDS011;33676;51.006;17.180;2024-03-29T02:04:38;3.50;;;3.20;;
47912;SDS011;33676;51.006;17.180;2024-03-29T02:07:05;3.40;;;3.20;;
47912;SDS011;33676;51.006;17.180;2024-03-29T02:09:32;2.90;;;2.80;;
47912;SDS011;33676;51.006;17.180;2024-03-29T02:12:00;3.00;;;2.80;;
47912;SDS011;33676;51.006;17.180;2024-03-29T02:14:27;2.80;;;2.50;;
47912;SDS011;33676;51.006;17.180;2024-03-29T02:16:57;3.30;;;3.10;;
47912;SDS011;33676;51.006;17.180;2024-03-29T02:19:28;3.30;;;3.10;;
47912;SDS011;33676;51.006;17.180;2024-03-29T02:21:57;3.10;;;2.90;;
47912;SDS011;33676;51.006;17.180;2024-03-29T02:24:31;3.10;;;2.90;;
47912;SDS011;33676;51.006;17.180;2024-03-29T02:27:00;4.20;;;3.00;;
47912;SDS011;33676;51.006;17.180;2024-03-29T02:29:29;3.00;;;2.80;;
47912;SDS011;33676;51.006;17.180;2024-03-29T02:31:57;2.80;;;2.60;;
47912;SDS011;33676;51.006;17.180;2024-03-29T02:34:24;3.70;;;3.30;;
47912;SDS011;33676;51.006;17.180;2024-03-29T02:36:52;3.00;;;2.80;;
47912;SDS011;33676;51.006;17.180;2024-03-29T02:39:20;3.10;;;2.90;;
47912;SDS011;33676;51.006;17.180;2024-03-29T02:41:49;3.10;;;2.90;;
47912;SDS011;33676;51.006;17.180;2024-03-29T02:44:17;3.60;;;3.10;;
47912;SDS011;33676;51.006;17.180;2024-03-29T02:46:44;2.90;;;2.70;;
47912;SDS011;33676;51.006;17.180;2024-03-29T02:49:17;3.40;;;3.10;;
47912;SDS011;33676;51.006;17.180;2024-03-29T02:51:46;3.40;;;3.20;;
47912;SDS011;33676;51.006;17.180;2024-03-29T02:54:14;2.80;;;2.40;;
47912;SDS011;33676;51.006;17.180;2024-03-29T02:56:42;3.10;;;2.60;;
47912;SDS011;33676;51.006;17.180;2024-03-29T02:59:10;2.60;;;2.40;;
47912;SDS011;33676;51.006;17.180;2024-03-29T03:01:40;3.10;;;2.80;;
47912;SDS011;33676;51.006;17.180;2024-03-29T03:04:08;3.00;;;2.50;;
47912;SDS011;33676;51.006;17.180;2024-03-29T03:06:35;2.10;;;2.00;;
47912;SDS011;33676;51.006;17.180;2024-03-29T03:09:05;2.50;;;2.00;;
47912;SDS011;33676;51.006;17.180;2024-03-29T03:11:56;3.30;;;2.50;;
47912;SDS011;33676;51.006;17.180;2024-03-29T03:14:25;2.40;;;2.20;;
47912;SDS011;33676;51.006;17.180;2024-03-29T03:16:52;2.40;;;2.20;;
47912;SDS011;33676;51.006;17.180;2024-03-29T03:19:19;3.00;;;2.10;;
47912;SDS011;33676;51.006;17.180;2024-03-29T03:21:46;2.60;;;2.00;;
47912;SDS011;33676;51.006;17.180;2024-03-29T03:24:14;2.80;;;2.60;;
47912;SDS011;33676;51.006;17.180;2024-03-29T03:26:42;2.00;;;1.90;;
47912;SDS011;33676;51.006;17.180;2024-03-29T03:29:09;2.80;;;2.10;;
47912;SDS011;33676;51.006;17.180;2024-03-29T03:31:38;2.40;;;2.00;;
47912;SDS011;33676;51.006;17.180;2024-03-29T03:34:06;4.00;;;2.60;;
47912;SDS011;33676;51.006;17.180;2024-03-29T03:36:33;2.70;;;2.30;;
47912;SDS011;33676;51.006;17.180;2024-03-29T03:39:02;2.00;;;1.70;;
47912;SDS011;33676;51.006;17.180;2024-03-29T03:41:30;2.60;;;1.80;;
47912;SDS011;33676;51.006;17.180;2024-03-29T03:43:57;1.90;;;1.70;;
47912;SDS011;33676;51.006;17.180;2024-03-29T03:46:24;2.30;;;2.10;;
47912;SDS011;33676;51.006;17.180;2024-03-29T03:48:51;2.90;;;2.10;;
47912;SDS011;33676;51.006;17.180;2024-03-29T03:51:18;2.30;;;2.00;;
47912;SDS011;33676;51.006;17.180;2024-03-29T03:53:45;2.70;;;2.50;;
47912;SDS011;33676;51.006;17.180;2024-03-29T03:56:13;2.20;;;2.10;;
47912;SDS011;33676;51.006;17.180;2024-03-29T03:58:40;2.90;;;2.00;;
47912;SDS011;33676;51.006;17.180;2024-03-29T04:01:07;2.90;;;1.70;;
47912;SDS011;33676;51.006;17.180;2024-03-29T04:03:34;2.60;;;1.90;;
47912;SDS011;33676;51.006;17.180;2024-03-29T04:06:05;1.70;;;1.60;;
47912;SDS011;33676;51.006;17.180;2024-03-29T04:08:33;1.80;;;1.70;;
47912;SDS011;33676;51.006;17.180;2024-03-29T04:11:03;1.80;;;1.70;;
47912;SDS011;33676;51.006;17.180;2024-03-29T04:13:31;2.90;;;1.90;;
47912;SDS011;33676;51.006;17.180;2024-03-29T04:16:01;1.50;;;1.40;;
47912;SDS011;33676;51.006;17.180;2024-03-29T04:18:29;4.80;;;2.40;;
47912;SDS011;33676;51.006;17.180;2024-03-29T04:21:03;1.80;;;1.50;;
47912;SDS011;33676;51.006;17.180;2024-03-29T04:23:31;4.60;;;1.90;;
47912;SDS011;33676;51.006;17.180;2024-03-29T04:25:58;2.00;;;1.70;;
47912;SDS011;33676;51.006;17.180;2024-03-29T04:28:26;1.90;;;1.50;;
47912;SDS011;33676;51.006;17.180;2024-03-29T04:30:54;2.70;;;1.80;;
47912;SDS011;33676;51.006;17.180;2024-03-29T04:33:23;2.80;;;2.40;;
47912;SDS011;33676;51.006;17.180;2024-03-29T04:36:01;1.50;;;1.40;;
47912;SDS011;33676;51.006;17.180;2024-03-29T04:38:31;2.90;;;1.90;;
47912;SDS011;33676;51.006;17.180;2024-03-29T04:40:58;2.70;;;1.30;;
47912;SDS011;33676;51.006;17.180;2024-03-29T04:43:27;2.20;;;1.70;;
47912;SDS011;33676;51.006;17.180;2024-03-29T04:46:06;1.90;;;1.80;;
47912;SDS011;33676;51.006;17.180;2024-03-29T04:48:37;3.20;;;1.50;;
47912;SDS011;33676;51.006;17.180;2024-03-29T04:51:05;1.60;;;1.50;;
47912;SDS011;33676;51.006;17.180;2024-03-29T04:53:32;2.20;;;1.90;;
47912;SDS011;33676;51.006;17.180;2024-03-29T04:56:02;1.70;;;1.30;;
47912;SDS011;33676;51.006;17.180;2024-03-29T04:58:29;2.50;;;1.40;;
47912;SDS011;33676;51.006;17.180;2024-03-29T05:00:56;1.30;;;1.20;;
47912;SDS011;33676;51.006;17.180;2024-03-29T05:03:23;2.50;;;1.80;;
47912;SDS011;33676;51.006;17.180;2024-03-29T05:05:51;1.10;;;1.10;;
47912;SDS011;33676;51.006;17.180;2024-03-29T05:08:20;3.20;;;1.50;;
47912;SDS011;33676;51.006;17.180;2024-03-29T05:10:49;1.50;;;1.50;;
47912;SDS011;33676;51.006;17.180;2024-03-29T05:13:17;1.80;;;1.50;;
47912;SDS011;33676;51.006;17.180;2024-03-29T05:15:47;2.40;;;1.70;;
47912;SDS011;33676;51.006;17.180;2024-03-29T05:18:14;2.50;;;1.50;;
47912;SDS011;33676;51.006;17.180;2024-03-29T05:20:41;1.60;;;1.50;;
47912;SDS011;33676;51.006;17.180;2024-03-29T05:23:14;1.30;;;1.20;;
47912;SDS011;33676;51.006;17.180;2024-03-29T05:25:41;4.40;;;1.70;;
47912;SDS011;33676;51.006;17.180;2024-03-29T05:28:09;2.40;;;2.20;;
47912;SDS011;33676;51.006;17.180;2024-03-29T05:30:38;3.80;;;2.10;;
47912;SDS011;33676;51.006;17.180;2024-03-29T05:33:05;2.40;;;2.10;;
47912;SDS011;33676;51.006;17.180;2024-03-29T05:35:33;3.00;;;1.80;;
47912;SDS011;33676;51.006;17.180;2024-03-29T05:38:03;2.00;;;1.80;;
47912;SDS011;33676;51.006;17.180;2024-03-29T05:40:32;2.00;;;1.60;;
47912;SDS011;33676;51.006;17.180;2024-03-29T05:43:02;1.50;;;1.30;;
47912;SDS011;33676;51.006;17.180;2024-03-29T05:45:30;1.90;;;1.80;;
47912;SDS011;33676;51.006;17.180;2024-03-29T05:47:58;7.50;;;1.90;;
47912;SDS011;33676;51.006;17.180;2024-03-29T05:50:25;1.60;;;1.50;;
47912;SDS011;33676;51.006;17.180;2024-03-29T05:52:53;1.50;;;1.40;;
47912;SDS011;33676;51.006;17.180;2024-03-29T05:55:20;3.20;;;1.60;;
47912;SDS011;33676;51.006;17.180;2024-03-29T05:57:47;1.50;;;1.30;;
47912;SDS011;33676;51.006;17.180;2024-03-29T06:00:15;1.70;;;1.60;;
47912;SDS011;33676;51.006;17.180;2024-03-29T06:02:43;1.80;;;1.60;;
47912;SDS011;33676;51.006;17.180;2024-03-29T06:05:15;1.50;;;1.40;;
47912;SDS011;33676;51.006;17.180;2024-03-29T06:07:42;3.60;;;1.80;;
47912;SDS011;33676;51.006;17.180;2024-03-29T06:10:14;1.50;;;1.40;;
47912;SDS011;33676;51.006;17.180;2024-03-29T06:12:55;1.70;;;1.60;;
47912;SDS011;33676;51.006;17.180;2024-03-29T06:15:24;1.10;;;1.10;;
47912;SDS011;33676;51.006;17.180;2024-03-29T06:18:11;1.30;;;1.30;;
47912;SDS011;33676;51.006;17.180;2024-03-29T06:21:03;1.00;;;1.00;;
47912;SDS011;33676;51.006;17.180;2024-03-29T06:23:33;1.00;;;1.00;;
47912;SDS011;33676;51.006;17.180;2024-03-29T06:26:01;1.60;;;1.40;;
47912;SDS011;33676;51.006;17.180;2024-03-29T06:28:31;2.00;;;1.30;;
47912;SDS011;33676;51.006;17.180;2024-03-29T06:30:59;2.10;;;1.10;;
47912;SDS011;33676;51.006;17.180;2024-03-29T06:33:29;4.60;;;1.60;;
47912;SDS011;33676;51.006;17.180;2024-03-29T06:35:56;2.20;;;0.90;;
47912;SDS011;33676;51.006;17.180;2024-03-29T06:38:23;1.50;;;1.30;;
47912;SDS011;33676;51.006;17.180;2024-03-29T06:40:50;1.40;;;0.90;;
47912;SDS011;33676;51.006;17.180;2024-03-29T06:43:17;1.70;;;1.60;;
47912;SDS011;33676;51.006;17.180;2024-03-29T06:45:44;1.40;;;1.00;;
47912;SDS011;33676;51.006;17.180;2024-03-29T06:48:12;1.10;;;0.80;;
47912;SDS011;33676;51.006;17.180;2024-03-29T06:50:40;1.40;;;0.60;;
47912;SDS011;33676;51.006;17.180;2024-03-29T06:53:07;0.70;;;0.70;;
47912;SDS011;33676;51.006;17.180;2024-03-29T06:55:35;3.00;;;1.50;;
47912;SDS011;33676;51.006;17.180;2024-03-29T06:58:04;2.10;;;1.20;;
47912;SDS011;33676;51.006;17.180;2024-03-29T07:00:31;3.60;;;1.90;;
47912;SDS011;33676;51.006;17.180;2024-03-29T07:02:58;1.70;;;1.40;;
47912;SDS011;33676;51.006;17.180;2024-03-29T07:05:25;1.60;;;1.30;;
47912;SDS011;33676;51.006;17.180;2024-03-29T07:07:52;1.20;;;0.80;;
47912;SDS011;33676;51.006;17.180;2024-03-29T07:10:20;1.00;;;1.00;;
47912;SDS011;33676;51.006;17.180;2024-03-29T07:12:47;1.00;;;1.00;;
47912;SDS011;33676;51.006;17.180;2024-03-29T07:15:15;2.50;;;1.10;;
47912;SDS011;33676;51.006;17.180;2024-03-29T07:17:42;1.20;;;1.00;;
47912;SDS011;33676;51.006;17.180;2024-03-29T07:20:10;2.90;;;1.50;;
47912;SDS011;33676;51.006;17.180;2024-03-29T07:22:38;1.30;;;1.00;;
47912;SDS011;33676;51.006;17.180;2024-03-29T07:25:05;1.80;;;1.20;;
47912;SDS011;33676;51.006;17.180;2024-03-29T07:27:33;2.00;;;1.20;;
47912;SDS011;33676;51.006;17.180;2024-03-29T07:30:03;2.70;;;1.20;;
47912;SDS011;33676;51.006;17.180;2024-03-29T07:32:31;1.20;;;1.00;;
47912;SDS011;33676;51.006;17.180;2024-03-29T07:34:58;1.40;;;0.80;;
47912;SDS011;33676;51.006;17.180;2024-03-29T07:37:26;1.70;;;0.80;;
47912;SDS011;33676;51.006;17.180;2024-03-29T07:39:53;1.70;;;1.10;;
47912;SDS011;33676;51.006;17.180;2024-03-29T07:42:20;1.50;;;1.00;;
47912;SDS011;33676;51.006;17.180;2024-03-29T07:44:48;3.90;;;1.00;;
47912;SDS011;33676;51.006;17.180;2024-03-29T07:47:15;2.10;;;1.30;;
47912;SDS011;33676;51.006;17.180;2024-03-29T07:49:43;2.10;;;1.30;;
47912;SDS011;33676;51.006;17.180;2024-03-29T07:52:10;2.70;;;1.20;;
47912;SDS011;33676;51.006;17.180;2024-03-29T07:54:37;1.30;;;1.00;;
47912;SDS011;33676;51.006;17.180;2024-03-29T07:57:05;1.40;;;1.40;;
47912;SDS011;33676;51.006;17.180;2024-03-29T07:59:35;1.20;;;1.10;;
47912;SDS011;33676;51.006;17.180;2024-03-29T08:02:02;2.70;;;1.00;;
47912;SDS011;33676;51.006;17.180;2024-03-29T08:04:29;1.30;;;1.00;;
47912;SDS011;33676;51.006;17.180;2024-03-29T08:06:57;1.60;;;1.30;;
47912;SDS011;33676;51.006;17.180;2024-03-29T08:09:24;1.30;;;1.10;;
47912;SDS011;33676;51.006;17.180;2024-03-29T08:11:51;1.50;;;1.20;;
47912;SDS011;33676;51.006;17.180;2024-03-29T08:14:20;2.20;;;1.30;;
47912;SDS011;33676;51.006;17.180;2024-03-29T08:16:47;0.90;;;0.90;;
47912;SDS011;33676;51.006;17.180;2024-03-29T08:19:14;3.50;;;2.00;;
47912;SDS011;33676;51.006;17.180;2024-03-29T08:21:41;1.50;;;1.10;;
47912;SDS011;33676;51.006;17.180;2024-03-29T08:24:08;2.60;;;1.60;;
47912;SDS011;33676;51.006;17.180;2024-03-29T08:26:35;1.00;;;0.80;;
47912;SDS011;33676;51.006;17.180;2024-03-29T08:29:02;1.40;;;0.90;;
47912;SDS011;33676;51.006;17.180;2024-03-29T08:31:29;1.40;;;0.80;;
47912;SDS011;33676;51.006;17.180;2024-03-29T08:33:56;1.40;;;0.80;;
47912;SDS011;33676;51.006;17.180;2024-03-29T08:36:29;1.80;;;1.20;;
47912;SDS011;33676;51.006;17.180;2024-03-29T08:38:57;2.50;;;1.10;;
47912;SDS011;33676;51.006;17.180;2024-03-29T08:41:24;4.60;;;1.10;;
47912;SDS011;33676;51.006;17.180;2024-03-29T08:43:51;3.40;;;1.40;;
47912;SDS011;33676;51.006;17.180;2024-03-29T08:46:18;1.30;;;1.10;;
47912;SDS011;33676;51.006;17.180;2024-03-29T08:48:45;1.40;;;1.20;;
47912;SDS011;33676;51.006;17.180;2024-03-29T08:51:12;1.10;;;1.10;;
47912;SDS011;33676;51.006;17.180;2024-03-29T08:53:41;1.30;;;1.00;;
47912;SDS011;33676;51.006;17.180;2024-03-29T08:56:08;1.60;;;1.00;;
47912;SDS011;33676;51.006;17.180;2024-03-29T08:58:35;2.00;;;0.80;;
47912;SDS011;33676;51.006;17.180;2024-03-29T09:01:04;1.20;;;0.70;;
47912;SDS011;33676;51.006;17.180;2024-03-29T09:03:31;0.70;;;0.70;;
47912;SDS011;33676;51.006;17.180;2024-03-29T09:05:59;1.70;;;0.80;;
47912;SDS011;33676;51.006;17.180;2024-03-29T09:08:26;3.70;;;0.80;;
47912;SDS011;33676;51.006;17.180;2024-03-29T09:10:53;3.30;;;0.90;;
47912;SDS011;33676;51.006;17.180;2024-03-29T09:13:20;1.10;;;0.80;;
47912;SDS011;33676;51.006;17.180;2024-03-29T09:15:47;1.10;;;1.00;;
47912;SDS011;33676;51.006;17.180;2024-03-29T09:18:16;0.90;;;0.90;;
47912;SDS011;33676;51.006;17.180;2024-03-29T09:20:59;1.10;;;0.80;;
47912;SDS011;33676;51.006;17.180;2024-03-29T09:23:27;1.50;;;1.20;;
47912;SDS011;33676;51.006;17.180;2024-03-29T09:25:56;0.80;;;0.80;;
47912;SDS011;33676;51.006;17.180;2024-03-29T09:28:23;1.20;;;1.00;;
47912;SDS011;33676;51.006;17.180;2024-03-29T09:30:57;2.00;;;0.80;;
47912;SDS011;33676;51.006;17.180;2024-03-29T09:33:25;2.90;;;0.70;;
47912;SDS011;33676;51.006;17.180;2024-03-29T09:35:53;1.30;;;0.80;;
47912;SDS011;33676;51.006;17.180;2024-03-29T09:38:21;0.80;;;0.70;;
47912;SDS011;33676;51.006;17.180;2024-03-29T09:40:50;0.90;;;0.60;;
47912;SDS011;33676;51.006;17.180;2024-03-29T09:43:40;4.50;;;1.40;;
47912;SDS011;33676;51.006;17.180;2024-03-29T09:46:14;0.60;;;0.60;;
47912;SDS011;33676;51.006;17.180;2024-03-29T09:48:44;0.50;;;0.50;;
47912;SDS011;33676;51.006;17.180;2024-03-29T09:51:14;8.20;;;1.40;;
47912;SDS011;33676;51.006;17.180;2024-03-29T09:53:43;1.40;;;0.80;;
47912;SDS011;33676;51.006;17.180;2024-03-29T09:56:10;2.20;;;0.60;;
47912;SDS011;33676;51.006;17.180;2024-03-29T09:58:38;1.40;;;0.60;;
47912;SDS011;33676;51.006;17.180;2024-03-29T10:01:07;0.90;;;0.90;;
47912;SDS011;33676;51.006;17.180;2024-03-29T10:03:38;2.60;;;0.70;;
47912;SDS011;33676;51.006;17.180;2024-03-29T10:06:06;0.80;;;0.50;;
47912;SDS011;33676;51.006;17.180;2024-03-29T10:08:39;0.70;;;0.60;;
47912;SDS011;33676;51.006;17.180;2024-03-29T10:11:06;0.70;;;0.60;;
47912;SDS011;33676;51.006;17.180;2024-03-29T10:13:33;0.60;;;0.60;;
47912;SDS011;33676;51.006;17.180;2024-03-29T10:16:01;0.60;;;0.60;;
47912;SDS011;33676;51.006;17.180;2024-03-29T10:18:29;0.90;;;0.70;;
47912;SDS011;33676;51.006;17.180;2024-03-29T10:21:04;1.00;;;0.70;;
47912;SDS011;33676;51.006;17.180;2024-03-29T10:23:34;2.00;;;0.50;;
47912;SDS011;33676;51.006;17.180;2024-03-29T10:26:03;0.30;;;0.30;;
47912;SDS011;33676;51.006;17.180;2024-03-29T10:28:34;0.50;;;0.50;;
47912;SDS011;33676;51.006;17.180;2024-03-29T10:31:03;1.20;;;0.60;;
47912;SDS011;33676;51.006;17.180;2024-03-29T10:33:31;0.60;;;0.60;;
47912;SDS011;33676;51.006;17.180;2024-03-29T10:36:00;0.70;;;0.70;;
47912;SDS011;33676;51.006;17.180;2024-03-29T10:38:31;0.50;;;0.50;;
47912;SDS011;33676;51.006;17.180;2024-03-29T10:40:59;3.10;;;0.90;;
47912;SDS011;33676;51.006;17.180;2024-03-29T10:43:26;0.50;;;0.50;;
47912;SDS011;33676;51.006;17.180;2024-03-29T10:45:55;1.00;;;0.80;;
47912;SDS011;33676;51.006;17.180;2024-03-29T10:48:26;1.30;;;0.90;;
47912;SDS011;33676;51.006;17.180;2024-03-29T10:50:55;1.60;;;0.70;;
47912;SDS011;33676;51.006;17.180;2024-03-29T10:53:24;0.50;;;0.50;;
47912;SDS011;33676;51.006;17.180;2024-03-29T10:55:54;0.70;;;0.70;;
47912;SDS011;33676;51.006;17.180;2024-03-29T10:58:25;1.30;;;0.80;;
47912;SDS011;33676;51.006;17.180;2024-03-29T11:00:57;0.50;;;0.50;;
47912;SDS011;33676;51.006;17.180;2024-03-29T11:03:32;0.50;;;0.50;;
47912;SDS011;33676;51.006;17.180;2024-03-29T11:06:06;0.70;;;0.70;;
47912;SDS011;33676;51.006;17.180;2024-03-29T11:08:36;1.40;;;0.70;;
47912;SDS011;33676;51.006;17.180;2024-03-29T11:11:08;0.50;;;0.50;;
47912;SDS011;33676;51.006;17.180;2024-03-29T11:16:19;0.80;;;0.80;;
47912;SDS011;33676;51.006;17.180;2024-03-29T11:18:47;0.70;;;0.70;;
47912;SDS011;33676;51.006;17.180;2024-03-29T11:21:15;0.80;;;0.80;;
47912;SDS011;33676;51.006;17.180;2024-03-29T11:23:52;2.90;;;1.10;;
47912;SDS011;33676;51.006;17.180;2024-03-29T11:26:20;2.70;;;1.00;;
47912;SDS011;33676;51.006;17.180;2024-03-29T11:28:52;0.90;;;0.90;;
47912;SDS011;33676;51.006;17.180;2024-03-29T11:31:23;0.80;;;0.70;;
47912;SDS011;33676;51.006;17.180;2024-03-29T11:33:51;0.50;;;0.50;;
47912;SDS011;33676;51.006;17.180;2024-03-29T11:36:24;0.40;;;0.40;;
47912;SDS011;33676;51.006;17.180;2024-03-29T11:38:58;0.70;;;0.70;;
47912;SDS011;33676;51.006;17.180;2024-03-29T11:41:27;1.70;;;0.70;;
47912;SDS011;33676;51.006;17.180;2024-03-29T11:43:56;1.10;;;0.60;;
47912;SDS011;33676;51.006;17.180;2024-03-29T11:46:24;3.00;;;1.00;;
47912;SDS011;33676;51.006;17.180;2024-03-29T11:48:52;1.10;;;0.90;;
47912;SDS011;33676;51.006;17.180;2024-03-29T11:51:22;0.60;;;0.60;;
47912;SDS011;33676;51.006;17.180;2024-03-29T11:53:51;0.70;;;0.70;;
47912;SDS011;33676;51.006;17.180;2024-03-29T11:56:19;0.90;;;0.50;;
47912;SDS011;33676;51.006;17.180;2024-03-29T11:58:47;0.80;;;0.50;;
47912;SDS011;33676;51.006;17.180;2024-03-29T12:01:17;0.80;;;0.80;;
47912;SDS011;33676;51.006;17.180;2024-03-29T12:03:45;0.70;;;0.60;;
47912;SDS011;33676;51.006;17.180;2024-03-29T12:06:14;0.80;;;0.70;;
47912;SDS011;33676;51.006;17.180;2024-03-29T12:08:42;0.80;;;0.80;;
47912;SDS011;33676;51.006;17.180;2024-03-29T12:11:09;0.70;;;0.70;;
47912;SDS011;33676;51.006;17.180;2024-03-29T12:13:37;1.00;;;0.80;;
47912;SDS011;33676;51.006;17.180;2024-03-29T12:16:05;1.20;;;0.70;;
47912;SDS011;33676;51.006;17.180;2024-03-29T12:18:32;0.60;;;0.60;;
47912;SDS011;33676;51.006;17.180;2024-03-29T12:21:00;0.80;;;0.80;;
47912;SDS011;33676;51.006;17.180;2024-03-29T12:23:27;1.20;;;0.80;;
47912;SDS011;33676;51.006;17.180;2024-03-29T12:25:58;1.00;;;0.80;;
47912;SDS011;33676;51.006;17.180;2024-03-29T12:28:25;0.90;;;0.70;;
47912;SDS011;33676;51.006;17.180;2024-03-29T12:30:53;0.90;;;0.90;;
47912;SDS011;33676;51.006;17.180;2024-03-29T12:33:22;0.70;;;0.70;;
47912;SDS011;33676;51.006;17.180;2024-03-29T12:35:51;0.80;;;0.80;;
47912;SDS011;33676;51.006;17.180;2024-03-29T12:38:22;0.60;;;0.60;;
47912;SDS011;33676;51.006;17.180;2024-03-29T12:40:50;1.10;;;1.00;;
47912;SDS011;33676;51.006;17.180;2024-03-29T12:43:22;0.70;;;0.70;;
47912;SDS011;33676;51.006;17.180;2024-03-29T12:45:51;0.90;;;0.60;;
47912;SDS011;33676;51.006;17.180;2024-03-29T12:48:20;0.70;;;0.60;;
47912;SDS011;33676;51.006;17.180;2024-03-29T12:50:48;0.60;;;0.60;;
47912;SDS011;33676;51.006;17.180;2024-03-29T12:53:16;0.60;;;0.60;;
47912;SDS011;33676;51.006;17.180;2024-03-29T12:55:45;0.80;;;0.80;;
47912;SDS011;33676;51.006;17.180;2024-03-29T12:58:14;1.10;;;0.70;;
47912;SDS011;33676;51.006;17.180;2024-03-29T13:00:43;0.60;;;0.60;;
47912;SDS011;33676;51.006;17.180;2024-03-29T13:03:11;0.60;;;0.60;;
47912;SDS011;33676;51.006;17.180;2024-03-29T13:05:39;0.60;;;0.60;;
47912;SDS011;33676;51.006;17.180;2024-03-29T13:08:09;0.60;;;0.60;;
47912;SDS011;33676;51.006;17.180;2024-03-29T13:10:38;0.60;;;0.60;;
47912;SDS011;33676;51.006;17.180;2024-03-29T13:13:07;0.60;;;0.60;;
47912;SDS011;33676;51.006;17.180;2024-03-29T13:15:36;0.70;;;0.70;;
47912;SDS011;33676;51.006;17.180;2024-03-29T13:18:05;0.60;;;0.60;;
47912;SDS011;33676;51.006;17.180;2024-03-29T13:20:36;0.80;;;0.80;;
47912;SDS011;33676;51.006;17.180;2024-03-29T13:23:08;0.70;;;0.70;;
47912;SDS011;33676;51.006;17.180;2024-03-29T13:25:35;1.00;;;1.00;;
47912;SDS011;33676;51.006;17.180;2024-03-29T13:28:03;3.20;;;1.50;;
47912;SDS011;33676;51.006;17.180;2024-03-29T13:30:30;0.80;;;0.80;;
47912;SDS011;33676;51.006;17.180;2024-03-29T13:32:57;0.70;;;0.70;;
47912;SDS011;33676;51.006;17.180;2024-03-29T13:35:24;0.70;;;0.70;;
47912;SDS011;33676;51.006;17.180;2024-03-29T13:37:52;1.10;;;0.70;;
47912;SDS011;33676;51.006;17.180;2024-03-29T13:40:23;2.20;;;0.70;;
47912;SDS011;33676;51.006;17.180;2024-03-29T13:42:53;0.70;;;0.70;;
47912;SDS011;33676;51.006;17.180;2024-03-29T13:45:20;0.80;;;0.80;;
47912;SDS011;33676;51.006;17.180;2024-03-29T13:47:47;0.70;;;0.70;;
47912;SDS011;33676;51.006;17.180;2024-03-29T13:50:14;0.70;;;0.70;;
47912;SDS011;33676;51.006;17.180;2024-03-29T13:52:42;0.80;;;0.80;;
47912;SDS011;33676;51.006;17.180;2024-03-29T13:55:10;0.80;;;0.80;;
47912;SDS011;33676;51.006;17.180;2024-03-29T13:57:38;1.00;;;1.00;;
47912;SDS011;33676;51.006;17.180;2024-03-29T14:00:05;1.00;;;0.90;;
47912;SDS011;33676;51.006;17.180;2024-03-29T14:02:33;0.80;;;0.80;;
47912;SDS011;33676;51.006;17.180;2024-03-29T14:05:01;1.40;;;0.80;;
47912;SDS011;33676;51.006;17.180;2024-03-29T14:07:29;6.20;;;2.30;;
47912;SDS011;33676;51.006;17.180;2024-03-29T14:09:56;0.80;;;0.60;;
47912;SDS011;33676;51.006;17.180;2024-03-29T14:12:23;1.50;;;0.80;;
47912;SDS011;33676;51.006;17.180;2024-03-29T14:14:52;1.40;;;0.80;;
47912;SDS011;33676;51.006;17.180;2024-03-29T14:17:20;2.80;;;1.10;;
47912;SDS011;33676;51.006;17.180;2024-03-29T14:19:48;1.40;;;1.00;;
47912;SDS011;33676;51.006;17.180;2024-03-29T14:22:16;0.80;;;0.80;;
47912;SDS011;33676;51.006;17.180;2024-03-29T14:24:45;1.00;;;1.00;;
47912;SDS011;33676;51.006;17.180;2024-03-29T14:27:13;1.40;;;1.30;;
47912;SDS011;33676;51.006;17.180;2024-03-29T14:29:41;0.80;;;0.80;;
47912;SDS011;33676;51.006;17.180;2024-03-29T14:32:08;0.80;;;0.80;;
47912;SDS011;33676;51.006;17.180;2024-03-29T14:34:35;1.10;;;1.00;;
47912;SDS011;33676;51.006;17.180;2024-03-29T14:37:05;2.60;;;0.90;;
47912;SDS011;33676;51.006;17.180;2024-03-29T14:39:32;1.00;;;1.00;;
47912;SDS011;33676;51.006;17.180;2024-03-29T14:41:59;0.70;;;0.70;;
47912;SDS011;33676;51.006;17.180;2024-03-29T14:44:31;1.70;;;1.40;;